Central Wisconsin Airport
KCWA : now visible

Airfield :











YOU CAN JOIN US ON...

 
LOGIN :

Register | Disclaimer

   EN    FR    IT 

 









Legend :    VFR   Marginal VFR   IFR   Intensive IFR   Very Intensive IFR
Visi :
Ceiling :
>= 8 km
>= 3000ft
5 to 8 km
1000 to 3000 ft
1500m to 5 km
500 to 1000 ft
800 to 1500m
200 to 500 ft
< 800m
< 200 ft
Symbols :   Thunderstorms  Fog  Heavy snow  Heavy precipitations  Wind > 20 kt






- Airport Elevation : 1277 ft


KCWA - Central Wisconsin

CURRENT METAR :
  • 301055Z AUTO 27007KT 7SM CLR M20/M23 A3031 RMK AO2

EXPIRED METARs :
  • 301035Z AUTO 27008KT 10SM CLR M19/M23 A3030 RMK AO2
  • 301015Z AUTO 28008KT 7SM SCT110 M19/M23 A3029 RMK AO2
  • 300955Z AUTO 28007KT 7SM SCT110 M19/M23 A3030 RMK AO2
  • 300935Z AUTO 27007KT 7SM CLR M18/M23 A3030 RMK AO2
  • 300915Z AUTO 28010G14KT 7SM CLR M18/M23 A3030 RMK AO2
  • 300855Z AUTO 28010G18KT 10SM CLR M18/M23 A3031 RMK AO2
  • 300835Z AUTO 29012KT 7SM CLR M18/M23 A3030 RMK AO2
  • 300815Z AUTO 28011KT 7SM CLR M17/M22 A3030 RMK AO2

TAF KCWA
Valid from the 30 at 06:00 until the 31 at 06:00 UTC


300520Z 3006/3106 29008KT P6SM -SHSN BKN080
FM301000 30008KT P6SM SCT080
FM301500 29010G16KT P6SM SCT035
TEMPO 3019/3022 BKN035
FM302200 28009KT P6SM SCT040
KZMP FIR / North America



MET'MAP, your aeronautical weather chart ! - Copyright ORBIFLY December 2007 - Disclaimer

ORBIFLY MET'MAP TEAM :

Programming & Development : Alexandra Zaïnal
Original concept : Baudouin d'Aumeries
Technical & hardware support : Manuel Goepfert
Assistance : Marc-Olivier Méhu




SOURCES & CREDITS :

   NOAA       Earth
Advisory